createdAt,value
2024-03-03T00:00:54.109Z,86.94
2024-03-03T00:15:51.602Z,87.59
2024-03-03T00:30:49.058Z,87.28
2024-03-03T00:45:46.534Z,87.18
2024-03-03T01:00:44.323Z,87.43
2024-03-03T01:15:41.436Z,86.81
2024-03-03T01:30:38.890Z,86.49
2024-03-03T01:45:36.347Z,85.89
2024-03-03T02:00:33.850Z,85.63
2024-03-03T02:15:31.165Z,85.35
2024-03-03T02:30:28.641Z,86.68
2024-03-03T02:45:26.091Z,86.55
2024-03-03T03:00:23.563Z,85.66
2024-03-03T03:15:21.030Z,87.12
2024-03-03T03:30:18.423Z,86.57
2024-03-03T03:45:15.900Z,86.88
2024-03-03T04:00:13.424Z,87.36
2024-03-03T04:15:10.921Z,86.34
2024-03-03T04:30:08.462Z,87.20
2024-03-03T04:45:05.732Z,88.14
2024-03-03T05:00:03.081Z,87.33
2024-03-03T05:18:01.728Z,89.32
2024-03-03T05:32:58.860Z,90.03
2024-03-03T05:47:56.611Z,91.76
2024-03-03T06:02:53.598Z,91.84
2024-03-03T06:17:51.080Z,93.05
2024-03-03T06:32:48.442Z,92.05
2024-03-03T06:47:45.833Z,91.44
2024-03-03T07:02:43.075Z,91.94
2024-03-03T07:17:40.613Z,86.99
2024-03-03T07:32:38.039Z,84.46
2024-03-03T07:47:35.494Z,81.55
2024-03-03T08:02:32.890Z,80.43
2024-03-03T08:17:30.438Z,78.90
2024-03-03T08:32:27.858Z,78.44
2024-03-03T08:47:25.336Z,77.12
2024-03-03T09:02:22.816Z,76.81
2024-03-03T09:17:20.180Z,75.78
2024-03-03T09:32:17.744Z,75.39
2024-03-03T09:47:15.144Z,72.76
2024-03-03T10:02:12.783Z,72.99
2024-03-03T10:17:10.153Z,70.78
2024-03-03T10:32:07.595Z,70.07
2024-03-03T10:47:05.093Z,68.94
2024-03-03T11:02:02.687Z,70.12
2024-03-03T11:17:00.047Z,70.04
2024-03-03T11:31:57.441Z,68.04
2024-03-03T11:46:54.858Z,69.02
2024-03-03T12:01:52.672Z,66.97
2024-03-03T12:16:50.089Z,65.03
2024-03-03T12:31:47.820Z,64.45
2024-03-03T12:46:45.550Z,65.23
2024-03-03T13:01:43.083Z,65.44
2024-03-03T13:16:40.670Z,65.62
2024-03-03T13:31:38.272Z,64.88
2024-03-03T13:46:35.705Z,66.53
2024-03-03T14:01:33.308Z,64.50
2024-03-03T14:16:30.875Z,61.55
2024-03-03T14:31:28.494Z,60.31
2024-03-03T14:46:26.043Z,59.47
2024-03-03T15:01:23.641Z,61.17
2024-03-03T15:16:21.163Z,61.55
2024-03-03T15:31:18.745Z,61.02
2024-03-03T15:46:16.382Z,63.30
2024-03-03T16:01:14.122Z,64.75
2024-03-03T16:16:11.592Z,66.72
2024-03-03T16:31:08.882Z,68.63
2024-03-03T16:46:06.397Z,71.01
2024-03-03T17:01:06.812Z,72.43
2024-03-03T17:16:01.412Z,74.05
2024-03-03T17:30:58.733Z,76.16
2024-03-03T17:45:56.348Z,77.58
2024-03-03T18:00:53.925Z,76.91
2024-03-03T18:15:51.184Z,79.75
2024-03-03T18:30:48.595Z,79.83
2024-03-03T18:45:45.970Z,79.44
2024-03-03T19:00:46.963Z,80.38
2024-03-03T19:15:41.058Z,80.66
2024-03-03T19:30:38.425Z,81.49
2024-03-03T19:45:35.888Z,81.57
2024-03-03T20:00:33.423Z,81.99
2024-03-03T20:15:30.829Z,83.60
2024-03-03T20:30:28.285Z,83.21
2024-03-03T20:45:25.683Z,83.58
2024-03-03T21:00:23.238Z,85.08
2024-03-03T21:15:20.560Z,85.84
2024-03-03T21:30:18.195Z,85.03
2024-03-03T21:45:15.569Z,84.20
2024-03-03T22:00:13.092Z,88.59
2024-03-03T22:15:10.298Z,88.69
2024-03-03T22:30:07.659Z,87.23
2024-03-03T22:45:05.057Z,88.38
2024-03-03T23:00:02.628Z,89.34
2024-03-03T23:18:01.019Z,90.42
2024-03-03T23:32:58.272Z,91.13
2024-03-03T23:47:55.733Z,92.91
